sensor_id;sensor_type;location;lat;lon;timestamp;temperature;humidity
63313;DHT22;49442;45.640;13.812;2023-11-22T00:00:44;11.20;99.90
63313;DHT22;49442;45.640;13.812;2023-11-22T00:03:10;11.20;99.90
63313;DHT22;49442;45.640;13.812;2023-11-22T00:05:36;11.20;99.90
63313;DHT22;49442;45.640;13.812;2023-11-22T00:08:01;11.20;99.90
63313;DHT22;49442;45.640;13.812;2023-11-22T00:10:27;11.20;99.90
63313;DHT22;49442;45.640;13.812;2023-11-22T00:12:53;11.20;99.90
63313;DHT22;49442;45.640;13.812;2023-11-22T00:15:19;11.20;99.90
63313;DHT22;49442;45.640;13.812;2023-11-22T00:17:45;11.10;99.90
63313;DHT22;49442;45.640;13.812;2023-11-22T00:20:11;11.10;99.90
63313;DHT22;49442;45.640;13.812;2023-11-22T00:22:37;11.10;99.90
63313;DHT22;49442;45.640;13.812;2023-11-22T00:25:03;11.10;99.90
63313;DHT22;49442;45.640;13.812;2023-11-22T00:27:29;11.00;99.90
63313;DHT22;49442;45.640;13.812;2023-11-22T00:29:57;11.00;99.90
63313;DHT22;49442;45.640;13.812;2023-11-22T00:32:23;11.00;99.90
63313;DHT22;49442;45.640;13.812;2023-11-22T00:34:49;10.90;99.90
63313;DHT22;49442;45.640;13.812;2023-11-22T00:37:15;10.90;99.90
63313;DHT22;49442;45.640;13.812;2023-11-22T00:39:41;10.90;99.90
63313;DHT22;49442;45.640;13.812;2023-11-22T00:42:07;10.90;99.90
63313;DHT22;49442;45.640;13.812;2023-11-22T00:44:33;10.90;99.90
63313;DHT22;49442;45.640;13.812;2023-11-22T00:46:59;10.80;99.90
63313;DHT22;49442;45.640;13.812;2023-11-22T00:49:25;10.80;99.90
63313;DHT22;49442;45.640;13.812;2023-11-22T00:51:51;10.80;99.90
63313;DHT22;49442;45.640;13.812;2023-11-22T00:54:17;10.80;99.90
63313;DHT22;49442;45.640;13.812;2023-11-22T00:56:45;10.80;99.90
63313;DHT22;49442;45.640;13.812;2023-11-22T00:59:11;10.90;99.90
63313;DHT22;49442;45.640;13.812;2023-11-22T01:01:37;10.90;99.90
63313;DHT22;49442;45.640;13.812;2023-11-22T01:04:03;10.90;99.90
63313;DHT22;49442;45.640;13.812;2023-11-22T01:06:30;10.80;99.90
63313;DHT22;49442;45.640;13.812;2023-11-22T01:08:57;10.80;99.90
63313;DHT22;49442;45.640;13.812;2023-11-22T01:11:23;10.80;99.90
63313;DHT22;49442;45.640;13.812;2023-11-22T01:13:49;10.80;99.90
63313;DHT22;49442;45.640;13.812;2023-11-22T01:16:15;10.80;99.90
63313;DHT22;49442;45.640;13.812;2023-11-22T01:18:41;10.80;99.90
63313;DHT22;49442;45.640;13.812;2023-11-22T01:21:07;10.90;99.90
63313;DHT22;49442;45.640;13.812;2023-11-22T01:23:33;10.80;99.90
63313;DHT22;49442;45.640;13.812;2023-11-22T01:26:00;10.70;99.90
63313;DHT22;49442;45.640;13.812;2023-11-22T01:28:26;10.70;99.90
63313;DHT22;49442;45.640;13.812;2023-11-22T01:30:53;10.70;99.90
63313;DHT22;49442;45.640;13.812;2023-11-22T01:33:20;10.70;99.90
63313;DHT22;49442;45.640;13.812;2023-11-22T01:35:46;10.70;99.90
63313;DHT22;49442;45.640;13.812;2023-11-22T01:38:11;10.70;99.90
63313;DHT22;49442;45.640;13.812;2023-11-22T01:40:44;10.70;99.90
63313;DHT22;49442;45.640;13.812;2023-11-22T01:43:17;10.70;99.90
63313;DHT22;49442;45.640;13.812;2023-11-22T01:45:43;10.70;99.90
63313;DHT22;49442;45.640;13.812;2023-11-22T01:48:10;10.60;99.90
63313;DHT22;49442;45.640;13.812;2023-11-22T01:50:37;10.60;99.90
63313;DHT22;49442;45.640;13.812;2023-11-22T01:53:03;10.60;99.90
63313;DHT22;49442;45.640;13.812;2023-11-22T01:55:30;10.60;99.90
63313;DHT22;49442;45.640;13.812;2023-11-22T01:57:56;10.60;99.90
63313;DHT22;49442;45.640;13.812;2023-11-22T02:00:23;10.70;99.90
63313;DHT22;49442;45.640;13.812;2023-11-22T02:02:50;10.70;99.90
63313;DHT22;49442;45.640;13.812;2023-11-22T02:05:16;10.60;99.90
63313;DHT22;49442;45.640;13.812;2023-11-22T02:07:42;10.60;99.90
63313;DHT22;49442;45.640;13.812;2023-11-22T02:10:08;10.60;99.90
63313;DHT22;49442;45.640;13.812;2023-11-22T02:12:35;10.60;99.90
63313;DHT22;49442;45.640;13.812;2023-11-22T02:15:01;10.60;99.90
63313;DHT22;49442;45.640;13.812;2023-11-22T02:17:29;10.60;99.90
63313;DHT22;49442;45.640;13.812;2023-11-22T02:19:54;10.60;99.90
63313;DHT22;49442;45.640;13.812;2023-11-22T02:22:20;10.60;99.90
63313;DHT22;49442;45.640;13.812;2023-11-22T02:24:47;10.60;99.90
63313;DHT22;49442;45.640;13.812;2023-11-22T02:27:12;10.60;99.90
63313;DHT22;49442;45.640;13.812;2023-11-22T02:29:38;10.50;99.90
63313;DHT22;49442;45.640;13.812;2023-11-22T02:32:04;10.50;99.90
63313;DHT22;49442;45.640;13.812;2023-11-22T02:34:30;10.50;99.90
63313;DHT22;49442;45.640;13.812;2023-11-22T02:36:56;10.50;99.90
63313;DHT22;49442;45.640;13.812;2023-11-22T02:39:27;10.50;99.90
63313;DHT22;49442;45.640;13.812;2023-11-22T02:41:55;10.50;99.90
63313;DHT22;49442;45.640;13.812;2023-11-22T02:44:20;10.50;99.90
63313;DHT22;49442;45.640;13.812;2023-11-22T02:46:46;10.50;99.90
63313;DHT22;49442;45.640;13.812;2023-11-22T02:49:12;10.50;99.90
63313;DHT22;49442;45.640;13.812;2023-11-22T02:51:38;10.60;99.90
63313;DHT22;49442;45.640;13.812;2023-11-22T02:54:04;10.50;99.90
63313;DHT22;49442;45.640;13.812;2023-11-22T02:56:31;10.50;99.90
63313;DHT22;49442;45.640;13.812;2023-11-22T02:58:56;10.60;99.90
63313;DHT22;49442;45.640;13.812;2023-11-22T03:01:22;10.60;99.90
63313;DHT22;49442;45.640;13.812;2023-11-22T03:03:47;10.60;99.90
63313;DHT22;49442;45.640;13.812;2023-11-22T03:06:13;10.60;99.90
63313;DHT22;49442;45.640;13.812;2023-11-22T03:08:39;10.70;99.90
63313;DHT22;49442;45.640;13.812;2023-11-22T03:11:05;10.70;99.90
63313;DHT22;49442;45.640;13.812;2023-11-22T03:13:30;10.70;99.90
63313;DHT22;49442;45.640;13.812;2023-11-22T03:15:56;10.70;99.90
63313;DHT22;49442;45.640;13.812;2023-11-22T03:18:22;10.70;99.90
63313;DHT22;49442;45.640;13.812;2023-11-22T03:20:48;10.60;99.90
63313;DHT22;49442;45.640;13.812;2023-11-22T03:23:14;10.70;99.90
63313;DHT22;49442;45.640;13.812;2023-11-22T03:25:42;10.70;99.90
63313;DHT22;49442;45.640;13.812;2023-11-22T03:28:07;10.70;99.90
63313;DHT22;49442;45.640;13.812;2023-11-22T03:30:33;10.60;99.90
63313;DHT22;49442;45.640;13.812;2023-11-22T03:32:59;10.70;99.90
63313;DHT22;49442;45.640;13.812;2023-11-22T03:35:25;10.60;99.90
63313;DHT22;49442;45.640;13.812;2023-11-22T03:37:50;10.60;99.90
63313;DHT22;49442;45.640;13.812;2023-11-22T03:40:16;10.60;99.90
63313;DHT22;49442;45.640;13.812;2023-11-22T03:42:42;10.60;99.90
63313;DHT22;49442;45.640;13.812;2023-11-22T03:45:07;10.60;99.90
63313;DHT22;49442;45.640;13.812;2023-11-22T03:47:33;10.60;99.90
63313;DHT22;49442;45.640;13.812;2023-11-22T03:50:02;10.50;99.90
63313;DHT22;49442;45.640;13.812;2023-11-22T03:52:28;10.60;99.90
63313;DHT22;49442;45.640;13.812;2023-11-22T03:54:53;10.60;99.90
63313;DHT22;49442;45.640;13.812;2023-11-22T03:57:19;10.50;99.90
63313;DHT22;49442;45.640;13.812;2023-11-22T03:59:44;10.50;99.90
63313;DHT22;49442;45.640;13.812;2023-11-22T04:02:10;10.60;99.90
63313;DHT22;49442;45.640;13.812;2023-11-22T04:04:37;10.60;99.90
63313;DHT22;49442;45.640;13.812;2023-11-22T04:07:05;10.60;99.90
63313;DHT22;49442;45.640;13.812;2023-11-22T04:09:31;10.60;99.90
63313;DHT22;49442;45.640;13.812;2023-11-22T04:11:57;10.60;99.90
63313;DHT22;49442;45.640;13.812;2023-11-22T04:14:23;10.60;99.90
63313;DHT22;49442;45.640;13.812;2023-11-22T04:16:49;10.60;99.90
63313;DHT22;49442;45.640;13.812;2023-11-22T04:19:14;10.50;99.90
63313;DHT22;49442;45.640;13.812;2023-11-22T04:21:40;10.50;99.90
63313;DHT22;49442;45.640;13.812;2023-11-22T04:24:06;10.40;99.90
63313;DHT22;49442;45.640;13.812;2023-11-22T04:26:32;10.40;99.90
63313;DHT22;49442;45.640;13.812;2023-11-22T04:28:57;10.40;99.90
63313;DHT22;49442;45.640;13.812;2023-11-22T04:31:24;10.40;99.90
63313;DHT22;49442;45.640;13.812;2023-11-22T04:33:49;10.40;99.90
63313;DHT22;49442;45.640;13.812;2023-11-22T04:36:15;10.40;99.90
63313;DHT22;49442;45.640;13.812;2023-11-22T04:38:42;10.40;99.90
63313;DHT22;49442;45.640;13.812;2023-11-22T04:41:08;10.40;99.90
63313;DHT22;49442;45.640;13.812;2023-11-22T04:43:34;10.30;99.90
63313;DHT22;49442;45.640;13.812;2023-11-22T04:45:59;10.20;99.90
63313;DHT22;49442;45.640;13.812;2023-11-22T04:48:25;10.30;99.90
63313;DHT22;49442;45.640;13.812;2023-11-22T04:50:51;10.30;99.90
63313;DHT22;49442;45.640;13.812;2023-11-22T04:53:18;10.30;99.90
63313;DHT22;49442;45.640;13.812;2023-11-22T04:55:44;10.30;99.90
63313;DHT22;49442;45.640;13.812;2023-11-22T04:58:09;10.30;99.90
63313;DHT22;49442;45.640;13.812;2023-11-22T05:00:35;10.30;99.90
63313;DHT22;49442;45.640;13.812;2023-11-22T05:03:01;10.30;99.90
63313;DHT22;49442;45.640;13.812;2023-11-22T05:05:26;10.30;99.90
63313;DHT22;49442;45.640;13.812;2023-11-22T05:07:52;10.30;99.90
63313;DHT22;49442;45.640;13.812;2023-11-22T05:10:19;10.30;99.90
63313;DHT22;49442;45.640;13.812;2023-11-22T05:12:45;10.40;99.90
63313;DHT22;49442;45.640;13.812;2023-11-22T05:15:10;10.40;99.90
63313;DHT22;49442;45.640;13.812;2023-11-22T05:17:37;10.40;99.90
63313;DHT22;49442;45.640;13.812;2023-11-22T05:20:04;10.40;99.90
63313;DHT22;49442;45.640;13.812;2023-11-22T05:22:30;10.40;99.90
63313;DHT22;49442;45.640;13.812;2023-11-22T05:24:56;10.40;99.90
63313;DHT22;49442;45.640;13.812;2023-11-22T05:27:22;10.40;99.90
63313;DHT22;49442;45.640;13.812;2023-11-22T05:29:47;10.50;99.90
63313;DHT22;49442;45.640;13.812;2023-11-22T05:32:13;10.50;99.90
63313;DHT22;49442;45.640;13.812;2023-11-22T05:34:39;10.50;99.90
63313;DHT22;49442;45.640;13.812;2023-11-22T05:37:06;10.50;99.90
63313;DHT22;49442;45.640;13.812;2023-11-22T05:39:31;10.60;99.90
63313;DHT22;49442;45.640;13.812;2023-11-22T05:41:57;10.60;99.90
63313;DHT22;49442;45.640;13.812;2023-11-22T05:44:23;10.60;99.90
63313;DHT22;49442;45.640;13.812;2023-11-22T05:46:51;10.70;99.90
63313;DHT22;49442;45.640;13.812;2023-11-22T05:49:17;10.70;99.90
63313;DHT22;49442;45.640;13.812;2023-11-22T05:51:42;10.70;99.90
63313;DHT22;49442;45.640;13.812;2023-11-22T05:54:08;10.70;99.90
63313;DHT22;49442;45.640;13.812;2023-11-22T05:56:37;10.70;99.90
63313;DHT22;49442;45.640;13.812;2023-11-22T05:59:03;10.70;99.90
63313;DHT22;49442;45.640;13.812;2023-11-22T06:01:29;10.70;99.90
63313;DHT22;49442;45.640;13.812;2023-11-22T06:03:56;10.80;99.90
63313;DHT22;49442;45.640;13.812;2023-11-22T06:06:22;10.80;99.90
63313;DHT22;49442;45.640;13.812;2023-11-22T06:08:48;10.80;99.90
63313;DHT22;49442;45.640;13.812;2023-11-22T06:11:14;10.70;99.90
63313;DHT22;49442;45.640;13.812;2023-11-22T06:13:41;10.70;99.90
63313;DHT22;49442;45.640;13.812;2023-11-22T06:16:08;10.70;99.90
63313;DHT22;49442;45.640;13.812;2023-11-22T06:18:35;10.70;99.90
63313;DHT22;49442;45.640;13.812;2023-11-22T06:21:06;10.70;99.90
63313;DHT22;49442;45.640;13.812;2023-11-22T06:23:31;10.70;99.90
63313;DHT22;49442;45.640;13.812;2023-11-22T06:25:57;10.70;99.90
63313;DHT22;49442;45.640;13.812;2023-11-22T06:28:23;10.70;99.90
63313;DHT22;49442;45.640;13.812;2023-11-22T06:30:49;10.70;99.90
63313;DHT22;49442;45.640;13.812;2023-11-22T06:33:14;10.70;99.90
63313;DHT22;49442;45.640;13.812;2023-11-22T06:35:40;10.70;99.90
63313;DHT22;49442;45.640;13.812;2023-11-22T06:38:08;10.70;99.90
63313;DHT22;49442;45.640;13.812;2023-11-22T06:40:34;10.70;99.90
63313;DHT22;49442;45.640;13.812;2023-11-22T06:42:59;10.70;99.90
63313;DHT22;49442;45.640;13.812;2023-11-22T06:45:25;10.70;99.90
63313;DHT22;49442;45.640;13.812;2023-11-22T06:47:51;10.80;99.90
63313;DHT22;49442;45.640;13.812;2023-11-22T06:50:16;10.80;99.90
63313;DHT22;49442;45.640;13.812;2023-11-22T06:52:42;10.90;99.90
63313;DHT22;49442;45.640;13.812;2023-11-22T06:55:09;10.80;99.90
63313;DHT22;49442;45.640;13.812;2023-11-22T06:57:36;10.80;99.90
63313;DHT22;49442;45.640;13.812;2023-11-22T07:00:03;10.90;99.90
63313;DHT22;49442;45.640;13.812;2023-11-22T07:02:33;10.90;99.90
63313;DHT22;49442;45.640;13.812;2023-11-22T07:05:01;10.90;99.90
63313;DHT22;49442;45.640;13.812;2023-11-22T07:07:27;10.90;99.90
63313;DHT22;49442;45.640;13.812;2023-11-22T07:09:52;11.00;99.90
63313;DHT22;49442;45.640;13.812;2023-11-22T07:12:18;11.00;99.90
63313;DHT22;49442;45.640;13.812;2023-11-22T07:14:47;11.00;99.90
63313;DHT22;49442;45.640;13.812;2023-11-22T07:17:15;11.10;99.90
63313;DHT22;49442;45.640;13.812;2023-11-22T07:19:42;11.10;99.90
63313;DHT22;49442;45.640;13.812;2023-11-22T07:22:13;11.00;99.90
63313;DHT22;49442;45.640;13.812;2023-11-22T07:24:45;11.00;99.90
63313;DHT22;49442;45.640;13.812;2023-11-22T07:27:11;11.10;99.90
63313;DHT22;49442;45.640;13.812;2023-11-22T07:29:39;11.10;99.90
63313;DHT22;49442;45.640;13.812;2023-11-22T07:32:06;11.10;99.90
63313;DHT22;49442;45.640;13.812;2023-11-22T07:34:32;11.10;99.90
63313;DHT22;49442;45.640;13.812;2023-11-22T07:37:00;11.10;99.90
63313;DHT22;49442;45.640;13.812;2023-11-22T07:39:26;11.10;99.90
63313;DHT22;49442;45.640;13.812;2023-11-22T07:41:53;11.10;99.90
63313;DHT22;49442;45.640;13.812;2023-11-22T07:44:20;11.10;99.90
63313;DHT22;49442;45.640;13.812;2023-11-22T07:46:46;11.10;99.90
63313;DHT22;49442;45.640;13.812;2023-11-22T07:49:13;11.10;99.90
63313;DHT22;49442;45.640;13.812;2023-11-22T07:51:41;11.10;99.90
63313;DHT22;49442;45.640;13.812;2023-11-22T07:54:07;11.10;99.90
63313;DHT22;49442;45.640;13.812;2023-11-22T07:56:34;11.10;99.90
63313;DHT22;49442;45.640;13.812;2023-11-22T07:58:59;11.10;99.90
63313;DHT22;49442;45.640;13.812;2023-11-22T08:01:25;11.10;99.90
63313;DHT22;49442;45.640;13.812;2023-11-22T08:03:51;11.10;99.90
63313;DHT22;49442;45.640;13.812;2023-11-22T08:06:17;11.10;99.90
63313;DHT22;49442;45.640;13.812;2023-11-22T08:08:43;11.10;99.90
63313;DHT22;49442;45.640;13.812;2023-11-22T08:11:11;11.10;99.90
63313;DHT22;49442;45.640;13.812;2023-11-22T08:13:43;11.10;99.90
63313;DHT22;49442;45.640;13.812;2023-11-22T08:16:10;11.10;99.90
63313;DHT22;49442;45.640;13.812;2023-11-22T08:18:39;11.10;99.90
63313;DHT22;49442;45.640;13.812;2023-11-22T08:21:05;11.00;99.90
63313;DHT22;49442;45.640;13.812;2023-11-22T08:23:31;11.10;99.90
63313;DHT22;49442;45.640;13.812;2023-11-22T08:26:01;11.10;99.90
63313;DHT22;49442;45.640;13.812;2023-11-22T08:28:26;11.10;99.90
63313;DHT22;49442;45.640;13.812;2023-11-22T08:30:52;11.10;99.90
63313;DHT22;49442;45.640;13.812;2023-11-22T08:33:19;11.10;99.90
63313;DHT22;49442;45.640;13.812;2023-11-22T08:35:44;11.10;99.90
63313;DHT22;49442;45.640;13.812;2023-11-22T08:38:16;11.20;99.90
63313;DHT22;49442;45.640;13.812;2023-11-22T08:40:42;11.20;99.90
63313;DHT22;49442;45.640;13.812;2023-11-22T08:43:08;11.20;99.90
63313;DHT22;49442;45.640;13.812;2023-11-22T08:45:34;11.20;99.90
63313;DHT22;49442;45.640;13.812;2023-11-22T08:48:00;11.20;99.90
63313;DHT22;49442;45.640;13.812;2023-11-22T08:50:25;11.20;99.90
63313;DHT22;49442;45.640;13.812;2023-11-22T08:52:51;11.20;99.90
63313;DHT22;49442;45.640;13.812;2023-11-22T08:55:19;11.20;99.90
63313;DHT22;49442;45.640;13.812;2023-11-22T08:57:48;11.20;99.90
63313;DHT22;49442;45.640;13.812;2023-11-22T09:00:16;11.20;99.90
63313;DHT22;49442;45.640;13.812;2023-11-22T09:02:50;11.20;99.90
63313;DHT22;49442;45.640;13.812;2023-11-22T09:05:16;11.30;99.90
63313;DHT22;49442;45.640;13.812;2023-11-22T09:07:45;11.30;99.90
63313;DHT22;49442;45.640;13.812;2023-11-22T09:10:12;11.40;99.90
63313;DHT22;49442;45.640;13.812;2023-11-22T09:12:41;11.50;99.90
63313;DHT22;49442;45.640;13.812;2023-11-22T09:15:09;11.50;99.90
63313;DHT22;49442;45.640;13.812;2023-11-22T09:17:37;11.70;99.90
63313;DHT22;49442;45.640;13.812;2023-11-22T09:22:42;12.00;99.90
63313;DHT22;49442;45.640;13.812;2023-11-22T09:25:11;12.10;99.90
63313;DHT22;49442;45.640;13.812;2023-11-22T09:27:37;13.30;99.90
63313;DHT22;49442;45.640;13.812;2023-11-22T09:30:04;13.60;99.90
63313;DHT22;49442;45.640;13.812;2023-11-22T09:32:31;13.10;99.90
63313;DHT22;49442;45.640;13.812;2023-11-22T09:34:57;12.70;99.90
63313;DHT22;49442;45.640;13.812;2023-11-22T09:37:24;12.20;99.90
63313;DHT22;49442;45.640;13.812;2023-11-22T09:39:51;12.00;99.90
63313;DHT22;49442;45.640;13.812;2023-11-22T09:42:16;11.90;99.90
63313;DHT22;49442;45.640;13.812;2023-11-22T09:44:42;11.80;99.90
63313;DHT22;49442;45.640;13.812;2023-11-22T09:47:10;11.70;99.90
63313;DHT22;49442;45.640;13.812;2023-11-22T09:49:40;11.70;99.90
63313;DHT22;49442;45.640;13.812;2023-11-22T09:52:08;11.70;99.90
63313;DHT22;49442;45.640;13.812;2023-11-22T09:54:35;11.70;99.90
63313;DHT22;49442;45.640;13.812;2023-11-22T09:57:01;11.80;99.90
63313;DHT22;49442;45.640;13.812;2023-11-22T09:59:28;11.80;99.90
63313;DHT22;49442;45.640;13.812;2023-11-22T10:01:55;11.80;99.90
63313;DHT22;49442;45.640;13.812;2023-11-22T10:04:20;11.80;99.90
63313;DHT22;49442;45.640;13.812;2023-11-22T10:06:46;11.80;99.90
63313;DHT22;49442;45.640;13.812;2023-11-22T10:09:12;11.80;99.90
63313;DHT22;49442;45.640;13.812;2023-11-22T10:11:39;11.80;99.90
63313;DHT22;49442;45.640;13.812;2023-11-22T10:14:16;11.80;99.90
63313;DHT22;49442;45.640;13.812;2023-11-22T10:16:58;11.80;99.90
63313;DHT22;49442;45.640;13.812;2023-11-22T10:19:24;11.80;99.90
63313;DHT22;49442;45.640;13.812;2023-11-22T10:22:02;11.80;99.90
63313;DHT22;49442;45.640;13.812;2023-11-22T10:24:31;11.80;99.90
63313;DHT22;49442;45.640;13.812;2023-11-22T10:26:59;11.80;99.90
63313;DHT22;49442;45.640;13.812;2023-11-22T10:29:25;11.90;99.90
63313;DHT22;49442;45.640;13.812;2023-11-22T10:31:51;11.90;99.90
63313;DHT22;49442;45.640;13.812;2023-11-22T10:34:23;11.90;99.90
63313;DHT22;49442;45.640;13.812;2023-11-22T10:36:49;12.00;99.90
63313;DHT22;49442;45.640;13.812;2023-11-22T10:39:24;12.00;99.90
63313;DHT22;49442;45.640;13.812;2023-11-22T10:41:51;12.00;99.90
63313;DHT22;49442;45.640;13.812;2023-11-22T10:44:20;12.00;99.90
63313;DHT22;49442;45.640;13.812;2023-11-22T10:46:47;12.10;99.90
63313;DHT22;49442;45.640;13.812;2023-11-22T10:49:13;12.10;99.90
63313;DHT22;49442;45.640;13.812;2023-11-22T10:51:40;12.10;99.90
63313;DHT22;49442;45.640;13.812;2023-11-22T10:54:07;12.10;99.90
63313;DHT22;49442;45.640;13.812;2023-11-22T10:56:40;12.20;99.90
63313;DHT22;49442;45.640;13.812;2023-11-22T10:59:19;12.20;99.90
63313;DHT22;49442;45.640;13.812;2023-11-22T11:01:48;12.20;99.90
63313;DHT22;49442;45.640;13.812;2023-11-22T11:04:29;12.20;99.90
63313;DHT22;49442;45.640;13.812;2023-11-22T11:06:55;12.20;99.90
63313;DHT22;49442;45.640;13.812;2023-11-22T11:09:22;12.30;99.90
63313;DHT22;49442;45.640;13.812;2023-11-22T11:11:52;12.40;99.90
63313;DHT22;49442;45.640;13.812;2023-11-22T11:14:18;12.40;99.90
63313;DHT22;49442;45.640;13.812;2023-11-22T11:16:45;12.50;99.90
63313;DHT22;49442;45.640;13.812;2023-11-22T11:19:16;12.60;99.90
63313;DHT22;49442;45.640;13.812;2023-11-22T11:21:47;12.60;99.90
63313;DHT22;49442;45.640;13.812;2023-11-22T11:24:13;12.50;99.90
63313;DHT22;49442;45.640;13.812;2023-11-22T11:26:40;12.60;99.90
63313;DHT22;49442;45.640;13.812;2023-11-22T11:29:06;12.70;99.90
63313;DHT22;49442;45.640;13.812;2023-11-22T11:31:34;12.80;99.90
63313;DHT22;49442;45.640;13.812;2023-11-22T11:34:07;12.90;99.90
63313;DHT22;49442;45.640;13.812;2023-11-22T11:36:33;13.00;99.90
63313;DHT22;49442;45.640;13.812;2023-11-22T11:39:05;13.20;99.90
63313;DHT22;49442;45.640;13.812;2023-11-22T11:41:35;13.20;99.90
63313;DHT22;49442;45.640;13.812;2023-11-22T11:44:03;13.20;99.90
63313;DHT22;49442;45.640;13.812;2023-11-22T11:46:30;13.20;99.90
63313;DHT22;49442;45.640;13.812;2023-11-22T11:48:56;13.40;99.90
63313;DHT22;49442;45.640;13.812;2023-11-22T11:51:24;13.50;99.90
63313;DHT22;49442;45.640;13.812;2023-11-22T11:53:50;13.50;99.90
63313;DHT22;49442;45.640;13.812;2023-11-22T11:56:16;13.50;99.90
63313;DHT22;49442;45.640;13.812;2023-11-22T11:58:44;13.40;99.90
63313;DHT22;49442;45.640;13.812;2023-11-22T12:01:13;13.50;99.90
63313;DHT22;49442;45.640;13.812;2023-11-22T12:03:40;13.50;99.90
63313;DHT22;49442;45.640;13.812;2023-11-22T12:06:09;13.50;99.90
63313;DHT22;49442;45.640;13.812;2023-11-22T12:08:36;13.40;99.90
63313;DHT22;49442;45.640;13.812;2023-11-22T12:11:05;13.50;99.90
63313;DHT22;49442;45.640;13.812;2023-11-22T12:13:36;13.50;99.90
63313;DHT22;49442;45.640;13.812;2023-11-22T12:16:09;13.60;99.90
63313;DHT22;49442;45.640;13.812;2023-11-22T12:18:44;13.50;99.90
63313;DHT22;49442;45.640;13.812;2023-11-22T12:21:10;13.40;99.90
63313;DHT22;49442;45.640;13.812;2023-11-22T12:23:38;13.50;99.90
63313;DHT22;49442;45.640;13.812;2023-11-22T12:26:09;13.50;99.90
63313;DHT22;49442;45.640;13.812;2023-11-22T12:28:36;13.50;99.90
63313;DHT22;49442;45.640;13.812;2023-11-22T12:31:09;13.50;99.90
63313;DHT22;49442;45.640;13.812;2023-11-22T12:33:36;13.60;99.90
63313;DHT22;49442;45.640;13.812;2023-11-22T12:36:03;13.50;99.90
63313;DHT22;49442;45.640;13.812;2023-11-22T12:38:29;13.40;99.90
63313;DHT22;49442;45.640;13.812;2023-11-22T12:40:57;13.40;99.90
63313;DHT22;49442;45.640;13.812;2023-11-22T12:43:23;13.50;99.90
63313;DHT22;49442;45.640;13.812;2023-11-22T12:46:05;13.50;99.90
63313;DHT22;49442;45.640;13.812;2023-11-22T12:48:41;13.40;99.90
63313;DHT22;49442;45.640;13.812;2023-11-22T12:51:17;13.40;99.90
63313;DHT22;49442;45.640;13.812;2023-11-22T12:53:46;13.40;99.90
63313;DHT22;49442;45.640;13.812;2023-11-22T12:56:12;13.40;99.90
63313;DHT22;49442;45.640;13.812;2023-11-22T12:58:38;13.30;99.90
63313;DHT22;49442;45.640;13.812;2023-11-22T13:01:04;13.30;99.90
63313;DHT22;49442;45.640;13.812;2023-11-22T13:03:30;13.20;99.90
63313;DHT22;49442;45.640;13.812;2023-11-22T13:05:57;13.30;99.90
63313;DHT22;49442;45.640;13.812;2023-11-22T13:08:23;13.20;99.90
63313;DHT22;49442;45.640;13.812;2023-11-22T13:10:50;13.20;99.90
63313;DHT22;49442;45.640;13.812;2023-11-22T13:13:22;13.20;99.90
63313;DHT22;49442;45.640;13.812;2023-11-22T13:15:48;13.20;99.90
63313;DHT22;49442;45.640;13.812;2023-11-22T13:18:17;13.20;99.90
63313;DHT22;49442;45.640;13.812;2023-11-22T13:20:44;13.20;99.90
63313;DHT22;49442;45.640;13.812;2023-11-22T13:23:10;13.20;99.90
63313;DHT22;49442;45.640;13.812;2023-11-22T13:25:37;13.10;99.90
63313;DHT22;49442;45.640;13.812;2023-11-22T13:28:03;13.10;99.90
63313;DHT22;49442;45.640;13.812;2023-11-22T13:30:31;13.20;99.90
63313;DHT22;49442;45.640;13.812;2023-11-22T13:32:57;13.00;99.90
63313;DHT22;49442;45.640;13.812;2023-11-22T13:35:27;13.00;99.90
63313;DHT22;49442;45.640;13.812;2023-11-22T13:37:59;12.90;99.90
63313;DHT22;49442;45.640;13.812;2023-11-22T13:40:27;12.90;99.90
63313;DHT22;49442;45.640;13.812;2023-11-22T13:42:56;12.90;99.90
63313;DHT22;49442;45.640;13.812;2023-11-22T13:45:22;12.80;99.90
63313;DHT22;49442;45.640;13.812;2023-11-22T13:47:50;12.90;99.90
63313;DHT22;49442;45.640;13.812;2023-11-22T13:50:19;13.00;99.90
63313;DHT22;49442;45.640;13.812;2023-11-22T13:52:46;13.20;99.90
63313;DHT22;49442;45.640;13.812;2023-11-22T13:55:11;13.10;99.90
63313;DHT22;49442;45.640;13.812;2023-11-22T13:57:38;13.10;99.90
63313;DHT22;49442;45.640;13.812;2023-11-22T14:00:08;13.00;99.90
63313;DHT22;49442;45.640;13.812;2023-11-22T14:02:38;12.90;99.90
63313;DHT22;49442;45.640;13.812;2023-11-22T14:05:04;12.80;99.90
63313;DHT22;49442;45.640;13.812;2023-11-22T14:07:34;12.80;99.90
63313;DHT22;49442;45.640;13.812;2023-11-22T14:10:00;12.70;99.90
63313;DHT22;49442;45.640;13.812;2023-11-22T14:12:29;12.70;99.90
63313;DHT22;49442;45.640;13.812;2023-11-22T14:14:55;12.70;99.90
63313;DHT22;49442;45.640;13.812;2023-11-22T14:17:21;12.70;99.90
63313;DHT22;49442;45.640;13.812;2023-11-22T14:19:46;12.80;99.90
63313;DHT22;49442;45.640;13.812;2023-11-22T14:22:12;12.70;99.90
63313;DHT22;49442;45.640;13.812;2023-11-22T14:24:42;12.70;99.90
63313;DHT22;49442;45.640;13.812;2023-11-22T14:27:10;12.70;99.90
63313;DHT22;49442;45.640;13.812;2023-11-22T14:29:36;12.60;99.90
63313;DHT22;49442;45.640;13.812;2023-11-22T14:32:02;12.40;99.90
63313;DHT22;49442;45.640;13.812;2023-11-22T14:34:28;12.40;99.90
63313;DHT22;49442;45.640;13.812;2023-11-22T14:36:54;12.30;99.90
63313;DHT22;49442;45.640;13.812;2023-11-22T14:39:20;12.30;99.90
63313;DHT22;49442;45.640;13.812;2023-11-22T14:41:46;12.30;99.90
63313;DHT22;49442;45.640;13.812;2023-11-22T14:44:12;12.30;99.90
63313;DHT22;49442;45.640;13.812;2023-11-22T14:46:38;12.30;99.90
63313;DHT22;49442;45.640;13.812;2023-11-22T14:49:04;12.20;99.90
63313;DHT22;49442;45.640;13.812;2023-11-22T14:51:30;12.20;99.90
63313;DHT22;49442;45.640;13.812;2023-11-22T14:53:56;12.40;99.90
63313;DHT22;49442;45.640;13.812;2023-11-22T14:56:21;12.40;99.90
63313;DHT22;49442;45.640;13.812;2023-11-22T14:58:48;12.30;99.90
63313;DHT22;49442;45.640;13.812;2023-11-22T15:01:22;12.20;99.90
63313;DHT22;49442;45.640;13.812;2023-11-22T15:03:52;12.10;99.90
63313;DHT22;49442;45.640;13.812;2023-11-22T15:06:21;12.00;99.90
63313;DHT22;49442;45.640;13.812;2023-11-22T15:08:47;12.00;99.90
63313;DHT22;49442;45.640;13.812;2023-11-22T15:11:16;12.00;99.90
63313;DHT22;49442;45.640;13.812;2023-11-22T15:13:45;11.90;99.90
63313;DHT22;49442;45.640;13.812;2023-11-22T15:16:11;11.80;99.90